Stevensville, Maryland
Current Conditions -  °F | °C
As of 11:54 PM on Friday 19 Dec 2014 (Local Time) from KNAK Reporting Station
Clear Clear  
Wind Chill: 28°   Ceiling: Unl
Heat Index: 34°   Visibility: 10mi
Dew Point: 23°   Wind: 7mph
Humidity: 64%   Direction: 300°WNW
Pressure: 30.24"   Gusts: NA
Location:  38.98°N, 76.31°W
Report Text: KNAK 200454Z AUTO 30006KT 10SM CLR 01/M05 A3024 RMK AO2 SLP242 T00111050 400500006
Loading
Personal Weather Stations






























Interactive Weather Map New forecast layout! Learn more

10-Day Weather Forecast

Advertisements
Track Severe Weather on mobile